Time;durP1;ratioP1;P1;durP2;ratioP2;P2;SDS_P1;SDS_P2;PMS_P1;PMS_P2;Temp;Humidity;BMP_temperature;BMP_pressure;BME280_temperature;BME280_humidity;BME280_pressure;Samples;Min_cycle;Max_cycle;Signal;HPM_P1;HPM_P2
2021/12/14 00:02:27;;;;;;;63.92;45.28;;;8.00;68.50;;;;;;5077982;28;20024;-80
2021/12/14 00:04:54;;;;;;;65.50;46.10;;;8.00;68.80;;;;;;5072746;28;20024;-80
2021/12/14 00:07:21;;;;;;;67.10;45.25;;;7.90;68.90;;;;;;5075229;28;20028;-80
2021/12/14 00:09:49;;;;;;;66.20;47.25;;;7.90;68.80;;;;;;5073174;28;20116;-81
2021/12/14 00:15:04;;;;;;;65.35;45.28;;;7.90;69.10;;;;;;5073219;28;20078;-80
2021/12/14 00:17:40;;;;;;;70.13;45.83;;;7.90;69.00;;;;;;5077529;28;20077;-80
2021/12/14 00:20:33;;;;;;;59.55;40.15;;;7.70;69.30;;;;;;5073415;28;20107;-81
2021/12/14 00:25:37;;;;;;;61.22;43.25;;;7.60;69.70;;;;;;5073463;28;20032;-81
2021/12/14 00:28:10;;;;;;;60.17;43.97;;;7.60;69.90;;;;;;5071540;28;20120;-80
2021/12/14 00:30:37;;;;;;;58.30;43.17;;;7.60;70.00;;;;;;5073027;28;20499;-80
2021/12/14 00:33:07;;;;;;;65.68;44.13;;;7.60;69.90;;;;;;5072588;28;20063;-80
2021/12/14 00:35:34;;;;;;;63.10;42.22;;;7.70;69.90;;;;;;5073451;28;20025;-80
2021/12/14 00:38:00;;;;;;;60.47;43.38;;;7.70;70.10;;;;;;5058063;28;20029;-80
2021/12/14 00:40:31;;;;;;;60.92;42.20;;;7.70;70.00;;;;;;5073796;28;20101;-81
2021/12/14 00:42:59;;;;;;;61.58;42.13;;;7.70;69.80;;;;;;5074175;28;20062;-81
2021/12/14 00:45:28;;;;;;;58.10;41.72;;;7.70;69.80;;;;;;5073677;28;20097;-81
2021/12/14 00:47:56;;;;;;;64.18;43.72;;;7.70;70.00;;;;;;5058654;28;20036;-81
2021/12/14 00:50:25;;;;;;;60.28;42.42;;;7.70;70.00;;;;;;5055189;28;20028;-81
2021/12/14 00:52:51;;;;;;;60.10;43.83;;;7.70;69.90;;;;;;5054785;28;20113;-81
2021/12/14 00:55:25;;;;;;;56.95;42.00;;;7.70;69.90;;;;;;5060192;28;20017;-81
2021/12/14 00:57:52;;;;;;;62.97;43.55;;;7.70;70.00;;;;;;5073705;28;20035;-81
2021/12/14 01:00:23;;;;;;;61.42;42.95;;;7.70;70.20;;;;;;5073485;28;20017;-82
2021/12/14 01:02:49;;;;;;;56.65;42.22;;;7.70;70.20;;;;;;5054977;28;20044;-82
2021/12/14 01:05:20;;;;;;;60.97;43.70;;;7.60;70.20;;;;;;5059011;28;20082;-82
2021/12/14 01:07:46;;;;;;;65.68;44.30;;;7.70;70.20;;;;;;5055380;28;20032;-82
2021/12/14 01:10:22;;;;;;;64.30;44.45;;;7.70;70.10;;;;;;5054814;28;20060;-83
2021/12/14 01:12:55;;;;;;;69.43;44.35;;;7.60;70.20;;;;;;5072515;28;20031;-82
2021/12/14 01:15:42;;;;;;;59.95;42.47;;;7.70;70.30;;;;;;5053645;28;20079;-84
2021/12/14 01:18:48;;;;;;;64.60;45.05;;;7.60;70.30;;;;;;5051744;28;20361;-84
2021/12/14 01:21:58;;;;;;;56.22;39.85;;;7.60;69.90;;;;;;5067460;28;20472;-84
2021/12/14 01:24:21;;;;;;;70.95;45.95;;;7.40;70.00;;;;;;5065011;28;20614;-84
2021/12/14 01:26:47;;;;;;;62.38;42.60;;;7.20;70.50;;;;;;5073227;28;20042;-85
2021/12/14 01:29:16;;;;;;;64.45;43.00;;;7.10;70.70;;;;;;5055401;28;20028;-85
2021/12/14 01:31:44;;;;;;;62.17;44.72;;;7.10;70.80;;;;;;5058503;28;20024;-83
2021/12/14 01:34:22;;;;;;;65.40;44.00;;;7.10;70.80;;;;;;5064034;28;20063;-84
2021/12/14 01:36:54;;;;;;;57.38;41.15;;;7.10;70.80;;;;;;5072570;28;20056;-83
2021/12/14 01:42:15;;;;;;;60.10;42.50;;;7.00;70.80;;;;;;5072939;28;20090;-82
2021/12/14 01:44:46;;;;;;;59.38;41.05;;;7.00;70.80;;;;;;5072231;28;20052;-82
2021/12/14 01:47:17;;;;;;;65.57;44.08;;;7.00;70.80;;;;;;5072938;28;20098;-85
2021/12/14 01:49:43;;;;;;;64.50;44.40;;;7.00;70.80;;;;;;5073226;28;20021;-86
2021/12/14 01:52:14;;;;;;;58.22;41.22;;;7.00;70.90;;;;;;5073247;28;20508;-86
2021/12/14 01:54:47;;;;;;;58.00;42.05;;;7.10;70.70;;;;;;5073340;28;20025;-86
2021/12/14 01:57:17;;;;;;;60.60;41.28;;;7.10;70.60;;;;;;5054765;28;20385;-84
2021/12/14 01:59:45;;;;;;;60.30;42.03;;;7.10;70.50;;;;;;5072280;28;20056;-85
2021/12/14 02:02:31;;;;;;;61.78;41.85;;;7.10;70.60;;;;;;5073238;28;20032;-84
2021/12/14 02:04:58;;;;;;;61.08;43.15;;;7.10;70.80;;;;;;5073115;28;20024;-85
2021/12/14 02:07:27;;;;;;;63.60;43.80;;;7.10;70.80;;;;;;5054577;28;20044;-83
2021/12/14 02:09:57;;;;;;;61.20;43.70;;;7.20;70.80;;;;;;5073095;28;20039;-85
2021/12/14 02:12:27;;;;;;;63.05;44.42;;;7.20;70.60;;;;;;5055056;28;20048;-85
2021/12/14 02:15:00;;;;;;;63.50;42.43;;;7.20;70.50;;;;;;5055112;28;20066;-84
2021/12/14 02:17:26;;;;;;;58.70;42.55;;;7.20;70.50;;;;;;5054514;28;20119;-84
2021/12/14 02:19:52;;;;;;;63.03;44.22;;;7.20;70.40;;;;;;5054853;28;20472;-84
2021/12/14 02:22:18;;;;;;;61.70;44.40;;;7.20;70.40;;;;;;5055325;28;20031;-84
2021/12/14 02:24:47;;;;;;;59.47;43.05;;;7.20;70.50;;;;;;5072683;28;20028;-83
2021/12/14 02:27:13;;;;;;;57.30;41.08;;;7.20;71.10;;;;;;5054393;28;20115;-84
2021/12/14 02:29:43;;;;;;;58.90;42.25;;;7.20;70.50;;;;;;5072345;28;20112;-83
2021/12/14 02:32:14;;;;;;;;;;;7.20;70.70;;;;;;5073834;28;20039;-83
2021/12/14 02:34:49;;;;;;;52.45;37.47;;;7.20;70.90;;;;;;5054915;28;19939;-83
2021/12/14 02:37:16;;;;;;;55.83;39.75;;;7.20;70.90;;;;;;5078116;28;20059;-82
2021/12/14 02:42:19;;;;;;;58.72;41.70;;;7.00;70.90;;;;;;5076891;28;20037;-83
2021/12/14 02:44:50;;;;;;;57.03;40.10;;;7.10;71.10;;;;;;5081588;28;20115;-84
2021/12/14 02:47:17;;;;;;;61.90;42.45;;;7.00;71.10;;;;;;5084554;28;20515;-84
2021/12/14 02:49:44;;;;;;;58.05;41.38;;;7.10;70.90;;;;;;5075822;28;20040;-85
2021/12/14 02:52:36;;;;;;;60.80;41.72;;;7.00;70.80;;;;;;5076176;28;20079;-85
2021/12/14 02:55:15;;;;;;;56.30;39.53;;;6.90;70.90;;;;;;5057870;28;20033;-86
2021/12/14 02:57:51;;;;;;;58.55;42.08;;;7.00;71.10;;;;;;5075686;28;20039;-87
2021/12/14 03:00:21;;;;;;;64.22;40.40;;;7.00;71.10;;;;;;5058369;28;20032;-87
2021/12/14 03:02:48;;;;;;;57.15;40.97;;;7.00;70.90;;;;;;5058315;28;20082;-87
2021/12/14 03:05:23;;;;;;;56.78;39.35;;;7.00;70.80;;;;;;5075937;28;20032;-86
2021/12/14 03:08:00;;;;;;;56.33;39.50;;;7.00;70.80;;;;;;5058854;28;20020;-87
2021/12/14 03:12:56;;;;;;;55.08;38.20;;;6.90;70.70;;;;;;5084658;28;20032;-86
2021/12/14 03:15:27;;;;;;;49.47;36.15;;;6.90;71.00;;;;;;5095981;28;20024;-86
2021/12/14 03:17:57;;;;;;;54.35;37.40;;;6.80;70.90;;;;;;5095856;28;20024;-86
2021/12/14 03:20:34;;;;;;;55.08;37.20;;;6.90;71.00;;;;;;5096154;28;20028;-85
2021/12/14 03:23:23;;;;;;;54.88;37.08;;;6.80;71.20;;;;;;5095950;28;20023;-83
2021/12/14 03:25:52;;;;;;;49.45;34.97;;;6.90;71.70;;;;;;5060231;28;20028;-86
2021/12/14 03:28:20;;;;;;;51.88;35.30;;;6.90;71.00;;;;;;5056585;28;20024;-85
2021/12/14 03:30:45;;;;;;;49.20;34.97;;;6.90;71.00;;;;;;5057601;28;20044;-85
2021/12/14 03:33:25;;;;;;;49.22;34.40;;;6.90;71.50;;;;;;5064898;28;20028;-85
2021/12/14 03:36:02;;;;;;;41.00;29.58;;;6.90;71.00;;;;;;5075441;28;20048;-85
2021/12/14 03:38:36;;;;;;;47.33;33.40;;;6.90;71.10;;;;;;5079602;28;20028;-85
2021/12/14 03:41:13;;;;;;;48.15;33.00;;;7.00;71.10;;;;;;5094275;28;20032;-85
2021/12/14 03:43:44;;;;;;;47.38;33.30;;;6.90;70.90;;;;;;5074328;28;20024;-86
2021/12/14 03:46:10;;;;;;;42.38;31.63;;;6.90;70.80;;;;;;5074450;28;20028;-85
2021/12/14 03:48:39;;;;;;;47.38;32.60;;;6.90;70.90;;;;;;5075172;28;20439;-85
2021/12/14 03:51:05;;;;;;;46.35;32.45;;;7.00;70.80;;;;;;5065008;28;20472;-86
2021/12/14 03:53:31;;;;;;;44.67;30.83;;;6.90;70.70;;;;;;5074626;28;20096;-85
2021/12/14 03:56:00;;;;;;;46.47;31.60;;;7.00;70.80;;;;;;5073912;28;20040;-85
2021/12/14 03:58:35;;;;;;;43.55;30.77;;;6.90;71.10;;;;;;5055707;28;20032;-86
2021/12/14 04:01:10;;;;;;;39.08;29.23;;;6.90;71.20;;;;;;5076880;28;20035;-85
2021/12/14 04:03:40;;;;;;;42.90;28.52;;;6.90;71.20;;;;;;5075634;28;20028;-85
2021/12/14 04:06:06;;;;;;;38.88;28.60;;;6.90;71.10;;;;;;5075440;28;20123;-86
2021/12/14 04:08:32;;;;;;;38.28;27.33;;;6.90;71.30;;;;;;5057065;28;20029;-86
2021/12/14 04:11:01;;;;;;;42.28;28.50;;;6.90;71.40;;;;;;5074840;28;20086;-85
2021/12/14 04:13:30;;;;;;;40.28;30.70;;;6.90;71.50;;;;;;5056847;28;20456;-85
2021/12/14 04:15:56;;;;;;;47.42;32.58;;;6.90;71.60;;;;;;5074837;28;20442;-86
2021/12/14 04:18:22;;;;;;;44.85;30.52;;;6.90;71.60;;;;;;5074335;28;20017;-86
2021/12/14 04:20:52;;;;;;;38.95;28.83;;;6.90;71.60;;;;;;5074436;28;20154;-86
2021/12/14 04:23:22;;;;;;;39.13;29.35;;;6.90;71.80;;;;;;5074464;28;20524;-85
2021/12/14 04:25:49;;;;;;;;;;;6.90;71.80;;;;;;5056917;28;20028;-85
2021/12/14 04:28:19;;;;;;;43.97;28.00;;;6.90;71.70;;;;;;5074028;28;19908;-85
2021/12/14 04:30:45;;;;;;;42.60;29.95;;;6.90;71.80;;;;;;5074299;28;20028;-85
2021/12/14 04:33:17;;;;;;;43.22;30.58;;;6.90;71.90;;;;;;5074010;28;20033;-85
2021/12/14 04:35:45;;;;;;;41.92;30.30;;;6.90;72.00;;;;;;5073516;28;20035;-86
2021/12/14 04:38:22;;;;;;;48.63;31.23;;;6.90;72.10;;;;;;5073619;28;20033;-86
2021/12/14 04:52:06;;;;;;;42.45;28.02;;;6.90;72.10;;;;;;5062847;28;20093;-85
2021/12/14 04:54:56;;;;;;;40.95;29.83;;;6.80;71.90;;;;;;5082691;28;20044;-84
2021/12/14 04:57:50;;;;;;;35.45;26.02;;;6.80;72.00;;;;;;5056852;28;20031;-86
2021/12/14 05:01:04;;;;;;;41.67;29.58;;;6.80;72.30;;;;;;5058907;28;20044;-84
2021/12/14 05:03:38;;;;;;;37.97;27.52;;;6.70;72.00;;;;;;5040446;28;20032;-83
2021/12/14 05:06:31;;;;;;;44.47;29.05;;;6.70;72.30;;;;;;5066533;28;20028;-84
2021/12/14 05:11:44;;;;;;;;;;;6.80;72.30;;;;;;5059177;28;20047;-83
2021/12/14 05:14:11;;;;;;;38.50;26.77;;;6.80;72.20;;;;;;5058967;28;19909;-84
2021/12/14 05:16:37;;;;;;;42.60;28.52;;;6.70;72.10;;;;;;5073259;28;20380;-83
2021/12/14 05:19:06;;;;;;;36.03;26.65;;;6.80;72.20;;;;;;5053810;28;20029;-81
2021/12/14 05:21:35;;;;;;;39.38;28.23;;;6.80;72.50;;;;;;5058117;28;20476;-81
2021/12/14 05:24:04;;;;;;;39.25;28.25;;;6.70;72.50;;;;;;5072640;28;20086;-81
2021/12/14 05:26:29;;;;;;;41.38;28.30;;;6.80;72.60;;;;;;5075166;28;20027;-81
2021/12/14 05:28:55;;;;;;;41.92;28.95;;;6.70;72.50;;;;;;5073019;28;20043;-81
2021/12/14 05:31:21;;;;;;;42.15;28.63;;;6.80;72.60;;;;;;5067871;28;20032;-83
2021/12/14 05:33:47;;;;;;;38.20;27.13;;;6.80;72.60;;;;;;5073418;28;20024;-83
2021/12/14 05:36:16;;;;;;;40.88;27.10;;;6.70;72.40;;;;;;5071935;28;20039;-83
2021/12/14 05:43:59;;;;;;;42.30;28.85;;;6.70;72.70;;;;;;5065987;28;20044;-83
2021/12/14 05:46:26;;;;;;;41.55;29.95;;;6.70;72.80;;;;;;5071908;28;20115;-82
2021/12/14 05:49:11;;;;;;;44.60;30.65;;;6.70;72.80;;;;;;5071334;28;20498;-82
2021/12/14 05:51:37;;;;;;;38.95;27.45;;;6.70;72.80;;;;;;5071589;28;20191;-85
2021/12/14 05:54:05;;;;;;;42.15;29.10;;;6.70;72.80;;;;;;5075874;28;20439;-86
2021/12/14 05:56:31;;;;;;;40.47;29.58;;;6.70;73.20;;;;;;5071153;28;20032;-79
2021/12/14 05:59:00;;;;;;;38.25;29.30;;;6.70;72.70;;;;;;5071470;28;20024;-80
2021/12/14 06:01:31;;;;;;;40.55;28.95;;;6.70;72.70;;;;;;5066213;28;20020;-80
2021/12/14 06:04:01;;;;;;;40.38;29.63;;;6.70;72.90;;;;;;5069935;28;20047;-80
2021/12/14 06:06:49;;;;;;;43.85;29.30;;;6.70;73.10;;;;;;5071925;28;20028;-80
2021/12/14 06:09:19;;;;;;;39.03;27.38;;;6.70;73.30;;;;;;5055075;28;20035;-79
2021/12/14 06:11:48;;;;;;;37.28;26.75;;;6.70;73.40;;;;;;5072958;28;20384;-79
2021/12/14 06:14:26;;;;;;;41.60;27.15;;;6.70;73.30;;;;;;5052200;28;20033;-81
2021/12/14 06:16:56;;;;;;;37.95;25.55;;;6.70;73.40;;;;;;5060500;28;20024;-80
2021/12/14 06:19:25;;;;;;;38.45;25.73;;;6.70;73.70;;;;;;5075798;28;20469;-84
2021/12/14 06:22:07;;;;;;;36.15;26.33;;;6.70;73.80;;;;;;5076569;28;20116;-84
2021/12/14 06:24:35;;;;;;;36.75;25.20;;;6.70;74.30;;;;;;5073567;28;20032;-85
2021/12/14 06:27:04;;;;;;;36.55;25.45;;;6.70;74.40;;;;;;5079229;28;20032;-86
2021/12/14 06:29:57;;;;;;;35.33;26.83;;;6.70;73.90;;;;;;5076457;28;20431;-84
2021/12/14 06:32:29;;;;;;;35.80;25.92;;;6.70;73.90;;;;;;5058569;28;20063;-84
2021/12/14 06:35:03;;;;;;;36.85;26.10;;;6.70;74.00;;;;;;5076228;28;20024;-84
2021/12/14 06:38:11;;;;;;;34.10;26.17;;;6.70;74.10;;;;;;5055593;28;20056;-84
2021/12/14 06:40:45;;;;;;;35.67;26.65;;;6.70;74.00;;;;;;5057834;28;20060;-81
2021/12/14 06:43:40;;;;;;;37.28;25.85;;;6.70;74.10;;;;;;5057046;28;20037;-77
2021/12/14 06:46:08;;;;;;;36.35;26.45;;;6.70;74.70;;;;;;5074084;28;20032;-78
2021/12/14 06:48:44;;;;;;;39.25;27.23;;;6.70;74.50;;;;;;5071251;28;20029;-83
2021/12/14 06:51:20;;;;;;;35.08;26.35;;;6.70;74.40;;;;;;5076163;28;20045;-83
2021/12/14 06:53:51;;;;;;;36.30;26.98;;;6.80;74.50;;;;;;5075414;28;20028;-83
2021/12/14 06:56:22;;;;;;;38.00;26.98;;;6.80;74.50;;;;;;5080205;28;20537;-82
2021/12/14 06:59:09;;;;;;;37.10;27.45;;;6.80;74.30;;;;;;5085719;28;20487;-82
2021/12/14 07:01:35;;;;;;;34.00;26.45;;;6.80;74.30;;;;;;5053082;28;20452;-81
2021/12/14 07:04:07;;;;;;;36.67;27.27;;;6.80;74.20;;;;;;5057721;28;20060;-82
2021/12/14 07:06:44;;;;;;;38.50;27.55;;;6.80;74.40;;;;;;5075998;28;20114;-81
2021/12/14 07:09:15;;;;;;;34.67;25.55;;;6.80;74.50;;;;;;5069793;28;20052;-81
2021/12/14 07:11:56;;;;;;;37.55;27.77;;;6.70;74.40;;;;;;5075448;28;20051;-80
2021/12/14 07:14:32;;;;;;;;;;;6.70;74.50;;;;;;5072711;28;20052;-82
2021/12/14 07:17:16;;;;;;;34.20;25.00;;;6.70;74.70;;;;;;5076301;28;19919;-81
2021/12/14 07:19:56;;;;;;;34.90;25.77;;;6.70;74.60;;;;;;5049980;28;20657;-79
2021/12/14 07:22:31;;;;;;;37.92;27.00;;;6.70;74.60;;;;;;5074872;28;20028;-79
2021/12/14 07:25:02;;;;;;;37.78;25.55;;;6.70;74.50;;;;;;5075760;28;20480;-79
2021/12/14 07:27:31;;;;;;;32.92;24.83;;;6.70;74.20;;;;;;5077750;28;20559;-79
2021/12/14 07:30:09;;;;;;;34.47;25.02;;;6.60;74.20;;;;;;5070735;28;20044;-79
2021/12/14 07:32:45;;;;;;;37.97;28.05;;;6.60;73.90;;;;;;5074401;28;20481;-79
2021/12/14 07:35:27;;;;;;;37.83;26.40;;;6.50;74.30;;;;;;5074265;28;20020;-89
2021/12/14 07:37:59;;;;;;;36.95;26.48;;;6.50;74.80;;;;;;5053157;28;20047;-79
2021/12/14 07:40:35;;;;;;;34.25;23.98;;;6.50;73.30;;;;;;5056896;28;20125;-78
2021/12/14 07:43:41;;;;;;;40.08;27.58;;;6.40;73.40;;;;;;5048580;28;20448;-77
2021/12/14 07:46:24;;;;;;;37.85;25.83;;;6.40;73.80;;;;;;5046975;28;20464;-77
2021/12/14 07:49:00;;;;;;;41.60;30.00;;;6.30;73.10;;;;;;5073270;28;20040;-77
2021/12/14 07:51:33;;;;;;;40.53;30.15;;;6.30;73.70;;;;;;5073294;28;20397;-77
2021/12/14 07:54:04;;;;;;;41.17;30.95;;;6.40;74.10;;;;;;5056374;28;20111;-78
2021/12/14 07:56:34;;;;;;;39.92;29.38;;;6.40;73.50;;;;;;5073969;28;20118;-78
2021/12/14 07:59:01;;;;;;;40.45;28.92;;;6.50;73.40;;;;;;5063748;28;20052;-78
2021/12/14 08:01:27;;;;;;;39.67;30.02;;;6.50;73.20;;;;;;5073298;28;20058;-77
2021/12/14 08:04:05;;;;;;;38.05;29.67;;;6.60;72.80;;;;;;5074480;28;20067;-77
2021/12/14 08:06:54;;;;;;;39.60;28.67;;;6.60;72.80;;;;;;5056751;28;20024;-77
2021/12/14 08:09:49;;;;;;;38.67;27.02;;;6.60;72.80;;;;;;5074420;28;20094;-77
2021/12/14 08:12:47;;;;;;;37.17;26.35;;;6.70;72.80;;;;;;5074249;28;20054;-78
2021/12/14 08:15:53;;;;;;;38.20;28.02;;;6.70;72.80;;;;;;5046002;28;20564;-77
2021/12/14 08:18:22;;;;;;;35.83;25.15;;;6.80;72.70;;;;;;5036898;28;20032;-77
2021/12/14 08:21:04;;;;;;;37.22;27.10;;;6.80;72.80;;;;;;5055055;28;20083;-77
2021/12/14 08:23:35;;;;;;;34.85;25.75;;;6.90;72.90;;;;;;5072219;28;20036;-77
2021/12/14 08:26:14;;;;;;;43.00;26.38;;;7.00;72.90;;;;;;5073620;28;20055;-77
2021/12/14 08:28:54;;;;;;;33.92;25.70;;;7.00;73.10;;;;;;5056046;28;20123;-76
2021/12/14 08:31:24;;;;;;;34.67;26.27;;;7.10;73.30;;;;;;5073550;28;20021;-76
2021/12/14 08:34:05;;;;;;;38.05;26.17;;;7.20;73.50;;;;;;5071529;28;20025;-76
2021/12/14 08:36:44;;;;;;;35.72;25.35;;;7.30;73.50;;;;;;5067636;28;20041;-76
2021/12/14 08:40:00;;;;;;;33.33;24.50;;;7.40;74.20;;;;;;5070646;28;20032;-76
2021/12/14 08:42:38;;;;;;;32.72;23.02;;;7.50;73.60;;;;;;5038111;28;20064;-79
2021/12/14 08:45:25;;;;;;;33.08;23.77;;;7.60;73.50;;;;;;5055305;28;20104;-80
2021/12/14 08:47:54;;;;;;;27.65;20.73;;;7.60;73.40;;;;;;5073413;28;20020;-80
2021/12/14 08:50:20;;;;;;;27.88;20.98;;;7.80;73.30;;;;;;5055891;28;20476;-81
2021/12/14 08:52:46;;;;;;;29.52;20.85;;;7.90;73.20;;;;;;5071845;28;20045;-81
2021/12/14 08:55:15;;;;;;;23.92;19.63;;;7.90;73.20;;;;;;5074064;28;20416;-80
2021/12/14 08:57:42;;;;;;;25.10;19.77;;;7.90;73.30;;;;;;5072955;28;20016;-80
2021/12/14 09:00:16;;;;;;;25.60;18.42;;;8.00;73.20;;;;;;5071750;28;20715;-81
2021/12/14 09:02:45;;;;;;;21.80;17.55;;;8.10;73.10;;;;;;5049025;28;20036;-77
2021/12/14 09:05:26;;;;;;;22.73;17.23;;;8.20;73.20;;;;;;5054898;28;20025;-80
2021/12/14 09:07:55;;;;;;;24.92;16.92;;;8.20;73.10;;;;;;5071624;28;20108;-82
2021/12/14 09:10:23;;;;;;;24.88;18.55;;;8.20;72.90;;;;;;5071413;28;20036;-82
2021/12/14 09:12:51;;;;;;;20.88;16.42;;;8.30;72.70;;;;;;5087589;28;20032;-80
2021/12/14 09:15:34;;;;;;;19.63;15.38;;;8.40;72.60;;;;;;5099836;28;20036;-80
2021/12/14 09:17:59;;;;;;;18.77;13.95;;;8.50;72.40;;;;;;5065033;28;20029;-82
2021/12/14 09:20:33;;;;;;;16.88;13.38;;;8.60;72.20;;;;;;5081067;28;20389;-81
2021/12/14 09:23:06;;;;;;;20.80;13.63;;;8.70;71.80;;;;;;5070610;28;20068;-82
2021/12/14 09:25:32;;;;;;;16.98;12.25;;;8.80;71.50;;;;;;5067891;28;20037;-82
2021/12/14 09:28:00;;;;;;;17.88;12.90;;;8.90;71.00;;;;;;5052590;28;20114;-82
2021/12/14 09:30:29;;;;;;;18.40;13.07;;;9.00;70.50;;;;;;5052613;28;20480;-82
2021/12/14 09:32:56;;;;;;;16.58;13.48;;;9.10;70.80;;;;;;5052464;28;20036;-82
2021/12/14 09:35:26;;;;;;;17.63;12.35;;;9.20;69.90;;;;;;5070727;28;20036;-81
2021/12/14 09:37:56;;;;;;;15.55;12.25;;;9.20;69.20;;;;;;5052608;28;20037;-81
2021/12/14 09:40:31;;;;;;;15.63;11.88;;;9.30;68.80;;;;;;5052405;28;20090;-81
2021/12/14 09:42:58;;;;;;;15.88;12.48;;;9.40;68.50;;;;;;5051908;28;20121;-84
2021/12/14 09:45:29;;;;;;;16.83;13.07;;;9.50;68.30;;;;;;5057227;28;20070;-86
2021/12/14 09:47:55;;;;;;;15.48;12.30;;;9.50;68.30;;;;;;5074346;28;20028;-86
2021/12/14 09:50:29;;;;;;;16.83;12.13;;;9.60;67.60;;;;;;5056488;28;20032;-86
2021/12/14 09:52:57;;;;;;;16.88;13.25;;;9.60;65.20;;;;;;5074410;28;20044;-86
2021/12/14 09:55:34;;;;;;;18.42;13.48;;;9.60;66.20;;;;;;5074490;28;20081;-86
2021/12/14 09:58:06;;;;;;;17.92;14.27;;;9.70;66.00;;;;;;5061910;28;20033;-85
2021/12/14 10:01:18;;;;;;;16.23;12.98;;;9.80;65.80;;;;;;5074422;28;20085;-83
2021/12/14 10:03:46;;;;;;;17.27;13.63;;;9.90;65.40;;;;;;5069809;28;20619;-84
2021/12/14 10:06:16;;;;;;;19.13;14.73;;;10.10;65.30;;;;;;5071098;28;20062;-83
2021/12/14 10:08:52;;;;;;;17.48;13.77;;;10.20;65.40;;;;;;5073157;28;20491;-84
2021/12/14 10:12:03;;;;;;;19.77;13.93;;;10.30;65.50;;;;;;5055842;28;20114;-84
2021/12/14 10:14:37;;;;;;;20.27;15.02;;;10.40;65.30;;;;;;5061275;28;20048;-84
2021/12/14 10:17:07;;;;;;;20.52;15.05;;;10.50;65.00;;;;;;5073180;28;20111;-84
2021/12/14 10:19:33;;;;;;;18.27;15.90;;;10.70;64.70;;;;;;5055129;28;20036;-85
2021/12/14 10:22:13;;;;;;;21.70;16.13;;;10.80;64.30;;;;;;5073432;28;20039;-84
2021/12/14 10:24:39;;;;;;;23.20;16.75;;;11.00;62.70;;;;;;5073963;28;20052;-84
2021/12/14 10:27:12;;;;;;;24.02;17.50;;;11.00;62.40;;;;;;5073561;28;20028;-76
2021/12/14 10:29:39;;;;;;;24.08;18.45;;;11.20;61.90;;;;;;5072614;28;20044;-76
2021/12/14 10:32:13;;;;;;;25.00;19.52;;;11.20;61.10;;;;;;5073639;28;20117;-76
2021/12/14 10:34:44;;;;;;;27.52;20.23;;;11.30;61.70;;;;;;5054402;28;20029;-76
2021/12/14 10:37:19;;;;;;;29.23;20.75;;;11.40;59.50;;;;;;5065080;28;20388;-76
2021/12/14 10:42:52;;;;;;;27.33;20.63;;;11.40;58.50;;;;;;5070913;28;20043;-77
2021/12/14 10:45:22;;;;;;;30.60;24.05;;;11.60;60.40;;;;;;5069433;28;20021;-75
2021/12/14 10:47:48;;;;;;;;;;;11.70;58.90;;;;;;5071780;28;20036;-76
2021/12/14 10:50:20;;;;;;;31.55;23.63;;;11.80;59.80;;;;;;5070536;28;19909;-76
2021/12/14 10:52:46;;;;;;;37.75;28.08;;;12.00;60.50;;;;;;5071383;28;20051;-84
2021/12/14 10:55:21;;;;;;;32.30;26.48;;;12.10;56.90;;;;;;5070701;28;20027;-83
2021/12/14 10:57:47;;;;;;;31.67;25.02;;;12.20;59.40;;;;;;5077482;28;20029;-84
2021/12/14 11:00:33;;;;;;;34.13;26.25;;;12.40;59.20;;;;;;5079962;28;20059;-76
2021/12/14 11:03:04;;;;;;;31.35;25.90;;;12.60;59.20;;;;;;5076220;28;20389;-83
2021/12/14 11:05:34;;;;;;;32.28;26.02;;;12.80;58.90;;;;;;5077000;28;20028;-85
2021/12/14 11:08:00;;;;;;;33.60;25.25;;;13.00;56.40;;;;;;5079253;28;20020;-76
2021/12/14 11:10:38;;;;;;;31.73;25.50;;;13.00;55.60;;;;;;5056918;28;20028;-76
2021/12/14 11:13:10;;;;;;;31.60;25.15;;;12.90;56.90;;;;;;5074417;28;20020;-77
2021/12/14 11:15:42;;;;;;;34.28;25.67;;;12.80;56.20;;;;;;5076253;28;20029;-85
2021/12/14 11:18:16;;;;;;;36.70;25.92;;;13.00;57.10;;;;;;5076445;28;20116;-85
2021/12/14 11:20:54;;;;;;;34.60;26.23;;;13.10;56.40;;;;;;5056972;28;20024;-85
2021/12/14 11:23:30;;;;;;;31.85;24.02;;;13.10;55.50;;;;;;5075966;28;20028;-85
2021/12/14 11:26:05;;;;;;;36.05;25.30;;;13.10;55.90;;;;;;5057999;28;20039;-86
2021/12/14 11:28:42;;;;;;;32.90;25.27;;;13.20;56.40;;;;;;5076623;28;20064;-85
2021/12/14 11:31:40;;;;;;;27.38;23.92;;;13.40;55.60;;;;;;5088019;28;20033;-86
2021/12/14 11:34:12;;;;;;;34.78;25.33;;;13.50;56.60;;;;;;5058030;28;20103;-86
2021/12/14 11:36:43;;;;;;;35.70;26.00;;;13.90;56.40;;;;;;5075411;28;20063;-77
2021/12/14 11:39:23;;;;;;;34.20;26.17;;;14.20;56.20;;;;;;5053499;28;20044;-78
2021/12/14 11:42:03;;;;;;;27.95;22.63;;;14.70;55.60;;;;;;5072565;28;20047;-77
2021/12/14 11:44:30;;;;;;;31.40;24.80;;;15.20;53.20;;;;;;5072796;28;20032;-77
2021/12/14 11:47:01;;;;;;;40.97;29.77;;;15.80;52.80;;;;;;5074144;28;20021;-77
2021/12/14 11:49:42;;;;;;;34.35;26.77;;;16.40;48.90;;;;;;5074632;28;20039;-77
2021/12/14 11:52:08;;;;;;;31.33;26.08;;;17.00;50.10;;;;;;5073509;28;20097;-85
2021/12/14 11:54:47;;;;;;;32.30;25.85;;;17.60;49.00;;;;;;5074687;28;20066;-85
2021/12/14 11:57:15;;;;;;;32.47;26.67;;;18.00;47.30;;;;;;5076087;28;20020;-84
2021/12/14 11:59:41;;;;;;;31.50;25.23;;;18.40;45.50;;;;;;5076149;28;20017;-85
2021/12/14 12:02:08;;;;;;;33.10;25.95;;;18.90;44.80;;;;;;5077835;28;20514;-84
2021/12/14 12:04:36;;;;;;;31.63;25.38;;;19.40;44.00;;;;;;5076332;28;20024;-84
2021/12/14 12:09:56;;;;;;;33.05;27.35;;;19.50;42.10;;;;;;5076080;28;20033;-78
2021/12/14 12:12:30;;;;;;;39.15;30.08;;;19.50;41.70;;;;;;5072389;28;20032;-78
2021/12/14 12:15:05;;;;;;;30.08;25.00;;;18.60;40.90;;;;;;5071454;28;20599;-78
2021/12/14 12:17:41;;;;;;;30.95;25.38;;;18.20;42.80;;;;;;5053720;28;20739;-77
2021/12/14 12:20:19;;;;;;;27.13;22.63;;;17.70;42.90;;;;;;5070112;28;20067;-78
2021/12/14 12:22:59;;;;;;;29.25;23.80;;;17.50;43.90;;;;;;5071447;28;20032;-78
2021/12/14 12:25:36;;;;;;;29.23;24.08;;;17.20;44.30;;;;;;5071319;28;20510;-77
2021/12/14 12:28:10;;;;;;;31.65;26.45;;;17.20;45.10;;;;;;5071444;28;20066;-77
2021/12/14 12:30:41;;;;;;;28.95;23.90;;;17.10;44.40;;;;;;5069562;28;20040;-77
2021/12/14 12:33:06;;;;;;;;;;;16.80;45.80;;;;;;5056200;28;20100;-77
2021/12/14 12:35:49;;;;;;;29.70;24.77;;;16.80;46.10;;;;;;5053261;28;19913;-77
2021/12/14 12:38:33;;;;;;;32.20;24.63;;;16.90;46.40;;;;;;5069184;28;20548;-77
2021/12/14 12:41:29;;;;;;;32.13;24.42;;;17.00;46.70;;;;;;5069313;28;20040;-77
2021/12/14 12:44:15;;;;;;;28.67;23.75;;;17.20;46.90;;;;;;5071238;28;20510;-78
2021/12/14 12:46:41;;;;;;;29.00;23.30;;;17.20;46.80;;;;;;5040822;28;20053;-76
2021/12/14 12:49:21;;;;;;;27.02;24.13;;;17.00;46.90;;;;;;5070299;28;20424;-77
2021/12/14 12:51:48;;;;;;;29.25;23.35;;;16.90;47.10;;;;;;5070560;28;20098;-77
2021/12/14 12:54:16;;;;;;;29.70;24.00;;;16.70;47.10;;;;;;5040579;28;20037;-85
2021/12/14 12:56:44;;;;;;;31.63;24.23;;;16.40;47.40;;;;;;5050382;28;20036;-77
2021/12/14 12:59:11;;;;;;;30.90;23.65;;;16.20;47.70;;;;;;5069659;28;20028;-77
2021/12/14 13:01:38;;;;;;;27.25;23.13;;;15.90;48.00;;;;;;5069680;28;20036;-77
2021/12/14 13:04:05;;;;;;;32.58;25.23;;;15.70;48.60;;;;;;5060547;28;20039;-77
2021/12/14 13:06:32;;;;;;;29.80;24.58;;;15.50;49.00;;;;;;5071453;28;20032;-77
2021/12/14 13:09:00;;;;;;;30.52;23.30;;;15.50;49.60;;;;;;5072706;28;20028;-77
2021/12/14 13:11:31;;;;;;;26.60;22.33;;;15.40;49.60;;;;;;5071909;28;20025;-78
2021/12/14 13:14:09;;;;;;;32.38;25.52;;;15.50;49.70;;;;;;5055088;28;20182;-77
2021/12/14 13:16:44;;;;;;;30.55;24.73;;;15.90;49.60;;;;;;5072924;28;20142;-78
2021/12/14 13:19:16;;;;;;;31.08;25.45;;;16.20;49.40;;;;;;5072351;28;20017;-77
2021/12/14 13:21:53;;;;;;;32.03;25.52;;;16.50;49.20;;;;;;5072862;28;20036;-77
2021/12/14 13:24:32;;;;;;;33.40;23.73;;;16.60;48.90;;;;;;5055540;28;20119;-85
2021/12/14 13:27:11;;;;;;;32.95;23.67;;;16.60;48.40;;;;;;5074655;28;20040;-85
2021/12/14 13:29:43;;;;;;;31.08;23.70;;;16.50;48.50;;;;;;5075015;28;20028;-85
2021/12/14 13:32:24;;;;;;;34.28;24.40;;;16.20;48.90;;;;;;5073966;28;20036;-83
2021/12/14 13:35:15;;;;;;;33.20;24.25;;;16.00;48.90;;;;;;5055999;28;20040;-84
2021/12/14 13:37:51;;;;;;;30.83;23.23;;;15.80;49.60;;;;;;5064213;28;20077;-83
2021/12/14 13:40:24;;;;;;;33.42;25.13;;;15.60;50.40;;;;;;5078007;28;20040;-83
2021/12/14 13:43:17;;;;;;;33.35;26.17;;;15.50;50.90;;;;;;5073416;28;20366;-82
2021/12/14 13:45:55;;;;;;;34.08;26.08;;;15.30;50.80;;;;;;5074754;28;20108;-82
2021/12/14 13:48:29;;;;;;;33.33;25.45;;;15.30;51.40;;;;;;5074768;28;20036;-83